createdAt,value
2018-08-18T00:03:50.464Z,13.60
2018-08-18T00:08:53.642Z,13.50
2018-08-18T00:13:56.823Z,13.50
2018-08-18T00:19:01.150Z,13.20
2018-08-18T00:24:08.475Z,13.00
2018-08-18T00:29:11.704Z,13.10
2018-08-18T09:39:25.980Z,28.40
2018-08-18T09:44:29.134Z,28.90
2018-08-18T09:49:32.353Z,28.60
2018-08-18T09:54:35.568Z,28.80
2018-08-18T09:59:38.775Z,29.10
2018-08-18T10:04:42.028Z,29.50
2018-08-18T10:09:45.224Z,29.60
2018-08-18T10:14:48.518Z,30.70
2018-08-18T10:19:51.719Z,31.10
2018-08-18T10:24:54.897Z,30.90
2018-08-18T10:29:58.085Z,30.40
2018-08-18T10:35:01.283Z,28.60
2018-08-18T10:40:10.079Z,28.20
2018-08-18T10:45:13.468Z,28.50
2018-08-18T10:50:31.808Z,29.10
2018-08-18T10:55:34.998Z,28.50
2018-08-18T11:00:38.387Z,28.40
2018-08-18T11:05:41.574Z,29.10
2018-08-18T11:10:44.840Z,29.40
2018-08-18T11:15:48.036Z,28.00
2018-08-18T11:20:52.134Z,28.50
2018-08-18T11:25:57.027Z,28.80
2018-08-18T11:31:00.189Z,29.20
2018-08-18T11:36:04.331Z,29.10
2018-08-18T11:41:07.997Z,28.70
2018-08-18T11:46:11.150Z,28.00
2018-08-18T11:51:14.315Z,27.70
2018-08-18T11:56:17.476Z,26.70
2018-08-18T12:01:24.868Z,26.10
2018-08-18T12:06:28.040Z,26.00
2018-08-18T12:11:31.301Z,25.90
2018-08-18T12:16:35.510Z,26.20
2018-08-18T12:21:44.242Z,25.70
2018-08-18T12:26:58.931Z,25.50
2018-08-18T12:32:02.169Z,25.60
2018-08-18T12:37:06.474Z,25.70
2018-08-18T12:42:12.303Z,25.80
2018-08-18T12:47:15.480Z,25.60
2018-08-18T12:52:18.707Z,26.10
2018-08-18T12:57:42.095Z,26.20
2018-08-18T13:02:48.078Z,26.20
2018-08-18T13:07:52.467Z,26.00
2018-08-18T13:12:56.291Z,26.50
2018-08-18T13:17:59.493Z,26.30
2018-08-18T13:23:02.716Z,26.80
2018-08-18T13:28:06.124Z,26.90
2018-08-18T13:33:09.399Z,27.10
2018-08-18T13:38:24.923Z,27.90
2018-08-18T13:43:42.543Z,28.10
2018-08-18T13:48:52.175Z,26.90
2018-08-18T13:53:55.734Z,26.90
2018-08-18T13:58:58.913Z,26.50
2018-08-18T14:04:02.253Z,26.20
2018-08-18T14:09:06.533Z,26.60
2018-08-18T14:14:09.707Z,26.70
2018-08-18T14:19:12.895Z,27.00
2018-08-18T14:24:18.975Z,26.60
2018-08-18T14:29:22.178Z,26.70
2018-08-18T14:34:25.395Z,26.80
2018-08-18T14:39:43.863Z,26.40
2018-08-18T14:44:47.109Z,26.40
2018-08-18T14:49:52.127Z,26.40
2018-08-18T14:54:55.320Z,26.10
2018-08-18T14:59:58.474Z,26.00
2018-08-18T15:05:01.648Z,25.80
2018-08-18T15:10:04.931Z,25.50
2018-08-18T15:15:08.063Z,25.20
2018-08-18T15:20:11.301Z,25.40
2018-08-18T15:25:14.446Z,25.40
2018-08-18T15:30:17.838Z,25.10
2018-08-18T15:35:21.090Z,24.70
2018-08-18T15:40:26.227Z,24.90
2018-08-18T15:45:30.062Z,25.10
2018-08-18T15:50:33.261Z,25.30
2018-08-18T15:55:36.422Z,25.00
2018-08-18T16:00:39.587Z,24.80
2018-08-18T16:05:42.737Z,24.70
2018-08-18T16:10:46.014Z,24.60
2018-08-18T16:15:49.159Z,24.60
2018-08-18T16:20:52.358Z,24.90
2018-08-18T16:25:55.531Z,25.10
2018-08-18T16:30:58.712Z,25.20
2018-08-18T16:36:02.035Z,25.00
2018-08-18T16:41:05.649Z,24.70
2018-08-18T16:46:21.533Z,24.50
2018-08-18T16:51:25.974Z,24.40
2018-08-18T16:56:30.391Z,24.50
2018-08-18T17:01:33.626Z,24.70
2018-08-18T17:06:36.846Z,24.70
2018-08-18T17:11:40.026Z,24.50
2018-08-18T17:16:43.266Z,24.30
2018-08-18T17:21:46.771Z,24.10
2018-08-18T17:26:50.010Z,24.00
2018-08-18T17:31:53.563Z,23.70
2018-08-18T17:36:57.094Z,23.50
2018-08-18T17:42:00.266Z,23.10
2018-08-18T17:47:07.609Z,22.90
2018-08-18T17:52:10.997Z,22.70
2018-08-18T17:57:14.273Z,22.60
2018-08-18T18:02:17.529Z,22.40
2018-08-18T18:07:20.686Z,22.30
2018-08-18T18:12:25.933Z,22.20
2018-08-18T18:17:29.426Z,22.20
2018-08-18T18:22:38.078Z,22.20
2018-08-18T18:27:41.253Z,22.10
2018-08-18T18:32:44.454Z,22.00
2018-08-18T18:37:47.674Z,21.70
2018-08-18T18:42:50.850Z,21.50
2018-08-18T18:47:54.101Z,21.50
2018-08-18T18:52:57.733Z,21.40
2018-08-18T18:58:10.244Z,21.30
2018-08-18T19:03:13.546Z,21.10
2018-08-18T19:08:19.091Z,20.90
2018-08-18T19:13:22.298Z,20.70
2018-08-18T19:18:25.643Z,20.50
2018-08-18T19:23:31.849Z,20.30
2018-08-18T19:28:35.250Z,20.20
2018-08-18T19:33:38.446Z,19.90
2018-08-18T19:38:41.723Z,19.80
2018-08-18T19:43:45.152Z,19.60
2018-08-18T19:48:48.394Z,19.60
2018-08-18T19:53:51.786Z,19.60
2018-08-18T19:58:55.103Z,19.50
2018-08-18T20:04:09.859Z,19.30
2018-08-18T20:09:13.163Z,19.20
2018-08-18T20:14:16.366Z,19.30
2018-08-18T20:19:19.579Z,19.20
2018-08-18T20:24:23.057Z,19.20
2018-08-18T20:29:26.347Z,19.20
2018-08-18T20:34:29.760Z,19.10
2018-08-18T20:39:32.971Z,19.10
2018-08-18T20:44:37.195Z,18.90
2018-08-18T20:49:40.360Z,18.60
2018-08-18T20:54:43.569Z,18.70
2018-08-18T20:59:47.640Z,18.60
2018-08-18T21:04:56.182Z,18.50
2018-08-18T21:09:59.910Z,18.40
2018-08-18T21:15:03.253Z,18.30
2018-08-18T21:20:09.319Z,18.20
2018-08-18T21:25:13.526Z,18.20
2018-08-18T21:30:17.872Z,18.00
2018-08-18T21:35:21.043Z,17.80
2018-08-18T21:40:24.203Z,17.80
2018-08-18T21:45:31.618Z,17.80
2018-08-18T21:50:35.019Z,17.80
2018-08-18T21:55:38.231Z,17.60
2018-08-18T22:00:46.470Z,17.40
2018-08-18T22:05:49.611Z,17.30
2018-08-18T22:10:55.703Z,17.20
2018-08-18T22:15:58.943Z,17.20
2018-08-18T22:21:02.136Z,17.10
2018-08-18T22:26:10.224Z,17.00
2018-08-18T22:31:13.443Z,17.00
2018-08-18T22:36:16.619Z,17.20
2018-08-18T22:41:19.804Z,17.00
2018-08-18T22:46:23.235Z,17.20
2018-08-18T22:51:26.483Z,17.30
2018-08-18T22:56:37.658Z,17.10
2018-08-18T23:01:40.872Z,17.20
2018-08-18T23:06:44.061Z,17.00
2018-08-18T23:11:48.103Z,17.00
2018-08-18T23:16:52.239Z,17.00
2018-08-18T23:21:55.457Z,17.30
2018-08-18T23:26:58.618Z,17.70
2018-08-18T23:32:11.402Z,17.80
2018-08-18T23:37:19.318Z,18.10
2018-08-18T23:42:23.799Z,18.00
2018-08-18T23:47:27.046Z,18.10
2018-08-18T23:52:30.634Z,18.10
2018-08-18T23:57:33.811Z,18.00
